Time;durP1;ratioP1;P1;durP2;ratioP2;P2;SDS_P1;SDS_P2;PMS_P1;PMS_P2;Temp;Humidity;BMP_temperature;BMP_pressure;BME280_temperature;BME280_humidity;BME280_pressure;Samples;Min_cycle;Max_cycle;Signal;HPM_P1;HPM_P2
2022/02/28 00:08:02;;;;;;;22.05;15.27;;;;;;;;;;20998964;28;20068;-67
2022/02/28 00:18:05;;;;;;;21.00;11.77;;;;;;;;;;20996713;28;20095;-63
2022/02/28 00:28:07;;;;;;;14.35;9.65;;;;;;;;;;20997750;28;20492;-69
2022/02/28 00:38:09;;;;;;;14.68;9.50;;;;;;;;;;20997663;28;20078;-66
2022/02/28 00:48:11;;;;;;;15.68;9.00;;;;;;;;;;20997172;28;20499;-69
2022/02/28 00:58:13;;;;;;;22.00;9.40;;;;;;;;;;20996641;28;20049;-66
2022/02/28 01:08:16;;;;;;;16.25;8.82;;;;;;;;;;21010668;28;20041;-67
2022/02/28 01:18:18;;;;;;;14.95;8.65;;;;;;;;;;21009173;28;20056;-67
2022/02/28 01:28:20;;;;;;;13.43;7.82;;;;;;;;;;21011050;28;20041;-65
2022/02/28 01:38:22;;;;;;;13.20;7.25;;;;;;;;;;21013530;28;20049;-61
2022/02/28 01:48:24;;;;;;;13.80;7.95;;;;;;;;;;21009276;28;20079;-68
2022/02/28 01:58:35;;;;;;;12.63;7.20;;;;;;;;;;21008266;28;20059;-70
2022/02/28 02:08:37;;;;;;;10.63;6.57;;;;;;;;;;21007824;28;20094;-65
2022/02/28 02:18:39;;;;;;;10.95;6.70;;;;;;;;;;21004293;28;20051;-68
2022/02/28 02:28:44;;;;;;;14.43;7.30;;;;;;;;;;21004600;28;20080;-64
2022/02/28 02:38:47;;;;;;;11.50;7.32;;;;;;;;;;21008084;28;20340;-65
2022/02/28 02:49:00;;;;;;;20.92;10.07;;;;;;;;;;21005017;28;20499;-62
2022/02/28 02:59:06;;;;;;;11.90;7.85;;;;;;;;;;21004006;28;20477;-62
2022/02/28 03:09:12;;;;;;;14.70;8.85;;;;;;;;;;21003160;28;20064;-69
2022/02/28 03:19:15;;;;;;;13.15;8.25;;;;;;;;;;21002357;28;20055;-62
2022/02/28 03:29:19;;;;;;;16.70;8.88;;;;;;;;;;20999881;28;20048;-68
2022/02/28 03:39:23;;;;;;;14.20;8.63;;;;;;;;;;21001553;28;20052;-64
2022/02/28 03:49:25;;;;;;;10.13;7.43;;;;;;;;;;21000321;28;20056;-62
2022/02/28 03:59:31;;;;;;;13.90;7.82;;;;;;;;;;20999440;28;20051;-67
2022/02/28 04:09:35;;;;;;;11.23;7.05;;;;;;;;;;20998179;28;20102;-67
2022/02/28 04:19:37;;;;;;;11.48;7.00;;;;;;;;;;20997761;28;20408;-66
2022/02/28 04:29:40;;;;;;;12.05;7.82;;;;;;;;;;20994033;28;20119;-66
2022/02/28 04:39:42;;;;;;;11.05;7.78;;;;;;;;;;20994854;28;20148;-64
2022/02/28 04:49:46;;;;;;;14.37;7.67;;;;;;;;;;20996428;28;20098;-65
2022/02/28 04:59:49;;;;;;;11.38;7.32;;;;;;;;;;20993772;28;20484;-66
2022/02/28 05:09:51;;;;;;;13.27;8.27;;;;;;;;;;20995020;28;20128;-63
2022/02/28 05:19:54;;;;;;;9.75;7.10;;;;;;;;;;20993986;28;20052;-66
2022/02/28 05:29:56;;;;;;;13.68;7.95;;;;;;;;;;20994273;28;20477;-67
2022/02/28 05:39:59;;;;;;;11.70;7.28;;;;;;;;;;20994192;28;20466;-68
2022/02/28 05:50:01;;;;;;;12.90;6.90;;;;;;;;;;20999375;28;20102;-66
2022/02/28 06:00:04;;;;;;;9.88;7.10;;;;;;;;;;21008008;28;20079;-65
2022/02/28 06:10:06;;;;;;;13.80;7.53;;;;;;;;;;21005814;28;20091;-66
2022/02/28 06:20:09;;;;;;;11.77;7.07;;;;;;;;;;21006422;28;20056;-65
2022/02/28 06:30:11;;;;;;;10.93;6.97;;;;;;;;;;21004373;28;20044;-69
2022/02/28 06:40:13;;;;;;;10.57;6.80;;;;;;;;;;21005098;28;20056;-65
2022/02/28 06:50:15;;;;;;;9.40;6.25;;;;;;;;;;21004517;28;20060;-64
2022/02/28 07:00:17;;;;;;;10.70;7.47;;;;;;;;;;21003412;28;20507;-66
2022/02/28 07:10:19;;;;;;;9.07;6.60;;;;;;;;;;21000944;28;20444;-65
2022/02/28 07:20:21;;;;;;;11.13;5.28;;;;;;;;;;21001591;28;20060;-63
2022/02/28 07:30:23;;;;;;;19.65;8.77;;;;;;;;;;21000419;28;20044;-59
2022/02/28 07:40:25;;;;;;;15.25;7.15;;;;;;;;;;20999924;28;20087;-66
2022/02/28 07:50:27;;;;;;;13.43;6.00;;;;;;;;;;20998976;28;20088;-66
2022/02/28 08:00:29;;;;;;;13.15;6.10;;;;;;;;;;20998091;28;20078;-66
2022/02/28 08:10:31;;;;;;;20.73;9.02;;;;;;;;;;20999297;28;20509;-65
2022/02/28 08:20:33;;;;;;;10.70;7.22;;;;;;;;;;20996099;28;20180;-66
2022/02/28 08:30:35;;;;;;;11.60;6.50;;;;;;;;;;20996448;28;20044;-65
2022/02/28 08:40:38;;;;;;;7.47;3.85;;;;;;;;;;20993646;28;20083;-67
2022/02/28 08:50:40;;;;;;;6.60;3.33;;;;;;;;;;20995599;28;20032;-66
2022/02/28 09:00:42;;;;;;;8.07;3.50;;;;;;;;;;20995729;28;20048;-67
2022/02/28 09:10:44;;;;;;;8.75;3.80;;;;;;;;;;20994503;28;20136;-64
2022/02/28 09:20:45;;;;;;;8.52;4.00;;;;;;;;;;20994572;28;20052;-64
2022/02/28 09:30:47;;;;;;;8.45;3.40;;;;;;;;;;21009810;28;20070;-66
2022/02/28 09:40:50;;;;;;;10.45;3.97;;;;;;;;;;21009493;28;20080;-62
2022/02/28 09:50:52;;;;;;;14.25;4.80;;;;;;;;;;21008989;28;20178;-66
2022/02/28 10:00:54;;;;;;;9.20;3.85;;;;;;;;;;20983243;28;20067;-57
2022/02/28 10:10:56;;;;;;;9.70;4.32;;;;;;;;;;20959543;28;20141;-60
2022/02/28 10:20:58;;;;;;;11.05;4.97;;;;;;;;;;20978578;28;20060;-63
2022/02/28 10:31:01;;;;;;;12.95;5.65;;;;;;;;;;20987881;28;20045;-65
2022/02/28 10:41:04;;;;;;;8.43;4.93;;;;;;;;;;21015300;28;20048;-61
2022/02/28 10:51:16;;;;;;;15.40;6.35;;;;;;;;;;20992500;28;20076;-61
2022/02/28 11:01:18;;;;;;;10.82;4.68;;;;;;;;;;20996699;28;20407;-57
2022/02/28 11:11:20;;;;;;;12.48;5.80;;;;;;;;;;20979664;28;20418;-67
2022/02/28 11:21:22;;;;;;;12.85;5.38;;;;;;;;;;20976103;28;20052;-64
2022/02/28 11:31:24;;;;;;;12.68;5.93;;;;;;;;;;20940427;28;20055;-62
2022/02/28 11:41:26;;;;;;;16.90;5.57;;;;;;;;;;20935074;28;20048;-58
2022/02/28 11:51:30;;;;;;;14.43;5.55;;;;;;;;;;20995067;28;20036;-62
2022/02/28 12:01:37;;;;;;;14.43;6.32;;;;;;;;;;20989659;28;20066;-64
2022/02/28 12:11:39;;;;;;;13.38;5.68;;;;;;;;;;20979738;28;20495;-61
2022/02/28 12:21:41;;;;;;;15.38;5.45;;;;;;;;;;20986314;28;20121;-62
2022/02/28 12:31:49;;;;;;;8.20;5.15;;;;;;;;;;20993082;28;20051;-62
2022/02/28 12:41:56;;;;;;;11.80;5.60;;;;;;;;;;20992265;28;20067;-60
2022/02/28 12:51:58;;;;;;;8.63;4.10;;;;;;;;;;20989857;28;20059;-68
2022/02/28 13:02:00;;;;;;;12.65;5.30;;;;;;;;;;21005156;28;20044;-60
2022/02/28 13:12:04;;;;;;;13.10;6.97;;;;;;;;;;21010292;28;20124;-61
2022/02/28 13:22:07;;;;;;;9.43;4.88;;;;;;;;;;21010540;28;20075;-68
2022/02/28 13:32:11;;;;;;;9.10;5.53;;;;;;;;;;21014995;28;20048;-70
2022/02/28 13:42:15;;;;;;;10.27;5.17;;;;;;;;;;21011812;28;20044;-69
2022/02/28 13:52:19;;;;;;;10.38;5.55;;;;;;;;;;21009439;28;20056;-69
2022/02/28 14:02:21;;;;;;;9.63;5.03;;;;;;;;;;21008867;28;20044;-72
2022/02/28 14:12:34;;;;;;;10.38;5.65;;;;;;;;;;21009324;28;20484;-72
2022/02/28 14:22:36;;;;;;;8.35;5.38;;;;;;;;;;21007460;28;20127;-72
2022/02/28 14:32:38;;;;;;;7.85;4.55;;;;;;;;;;21003963;28;20141;-72
2022/02/28 14:42:43;;;;;;;9.90;4.47;;;;;;;;;;21004085;28;20048;-71
2022/02/28 14:52:45;;;;;;;11.13;5.00;;;;;;;;;;21002922;28;20071;-71
2022/02/28 15:02:48;;;;;;;8.65;4.80;;;;;;;;;;21002085;28;20051;-72
2022/02/28 15:12:52;;;;;;;12.48;4.63;;;;;;;;;;21002220;28;20076;-72
2022/02/28 15:22:55;;;;;;;10.75;4.70;;;;;;;;;;21001500;28;20041;-68
2022/02/28 15:32:58;;;;;;;7.13;3.38;;;;;;;;;;20999375;28;20107;-65
2022/02/28 15:43:00;;;;;;;9.35;4.53;;;;;;;;;;20997787;28;20389;-62
2022/02/28 15:53:03;;;;;;;7.25;4.30;;;;;;;;;;20996934;28;20053;-70
2022/02/28 16:03:05;;;;;;;9.52;4.10;;;;;;;;;;20996109;28;20040;-64
2022/02/28 16:13:09;;;;;;;11.13;4.53;;;;;;;;;;20995954;28;20058;-66
2022/02/28 16:23:11;;;;;;;10.93;4.83;;;;;;;;;;20997068;28;20044;-64
2022/02/28 16:33:15;;;;;;;9.07;4.22;;;;;;;;;;20994516;28;20305;-67
2022/02/28 16:43:16;;;;;;;8.05;4.05;;;;;;;;;;20993862;28;20135;-60
2022/02/28 16:53:21;;;;;;;6.20;3.20;;;;;;;;;;20994087;28;20135;-67
2022/02/28 17:03:23;;;;;;;6.40;2.75;;;;;;;;;;20990671;28;20080;-67
2022/02/28 17:13:25;;;;;;;9.48;3.47;;;;;;;;;;20992718;28;20075;-59
2022/02/28 17:23:27;;;;;;;10.15;3.95;;;;;;;;;;20991803;28;20051;-61
2022/02/28 17:33:30;;;;;;;7.13;4.15;;;;;;;;;;20991533;28;20048;-60
2022/02/28 17:43:32;;;;;;;8.00;3.95;;;;;;;;;;20993570;28;20037;-58
2022/02/28 17:53:35;;;;;;;10.82;4.32;;;;;;;;;;21006372;28;20048;-62
2022/02/28 18:03:37;;;;;;;9.38;3.10;;;;;;;;;;21007961;28;20055;-64
2022/02/28 18:13:39;;;;;;;6.25;3.55;;;;;;;;;;21003922;28;20068;-69
2022/02/28 18:23:41;;;;;;;9.93;3.25;;;;;;;;;;21004223;28;20045;-66
2022/02/28 18:33:44;;;;;;;7.63;3.25;;;;;;;;;;21004438;28;20450;-69
2022/02/28 18:43:47;;;;;;;11.20;4.20;;;;;;;;;;21003664;28;20070;-63
2022/02/28 18:53:49;;;;;;;12.02;4.32;;;;;;;;;;21001361;28;20052;-63
2022/02/28 19:03:51;;;;;;;11.50;4.85;;;;;;;;;;21001530;28;20048;-64
2022/02/28 19:13:54;;;;;;;15.52;5.90;;;;;;;;;;21001602;28;20049;-63
2022/02/28 19:23:56;;;;;;;13.63;5.63;;;;;;;;;;21001224;28;20049;-61
2022/02/28 19:33:58;;;;;;;10.13;5.13;;;;;;;;;;20999681;28;20443;-63
2022/02/28 19:44:00;;;;;;;11.60;5.90;;;;;;;;;;20998573;28;20097;-62
2022/02/28 19:54:03;;;;;;;13.82;5.20;;;;;;;;;;20997381;28;20048;-60
2022/02/28 20:04:05;;;;;;;12.70;5.20;;;;;;;;;;20996750;28;20471;-62
2022/02/28 20:14:06;;;;;;;14.68;7.10;;;;;;;;;;20995488;28;20067;-63
2022/02/28 20:24:09;;;;;;;14.02;6.30;;;;;;;;;;20995457;28;20052;-63
2022/02/28 20:34:11;;;;;;;17.38;9.90;;;;;;;;;;20995405;28;20128;-61
2022/02/28 20:44:13;;;;;;;15.18;6.50;;;;;;;;;;20995508;28;20084;-64
2022/02/28 20:54:15;;;;;;;13.65;6.45;;;;;;;;;;20994549;28;20049;-62
2022/02/28 21:04:17;;;;;;;15.52;7.50;;;;;;;;;;20992936;28;20142;-65
2022/02/28 21:14:19;;;;;;;15.15;7.50;;;;;;;;;;20993713;28;20102;-63
2022/02/28 21:24:21;;;;;;;16.75;7.80;;;;;;;;;;21006237;28;20178;-65
2022/02/28 21:34:25;;;;;;;18.77;11.73;;;;;;;;;;21009056;28;20056;-65
2022/02/28 21:44:27;;;;;;;18.43;9.20;;;;;;;;;;21007479;28;20128;-61
2022/02/28 21:54:29;;;;;;;16.75;9.30;;;;;;;;;;21007031;28;20143;-60
2022/02/28 22:04:34;;;;;;;18.48;10.05;;;;;;;;;;21005209;28;20053;-60
2022/02/28 22:14:36;;;;;;;16.13;8.63;;;;;;;;;;21006349;28;20053;-62
2022/02/28 22:24:38;;;;;;;13.23;6.57;;;;;;;;;;21005790;28;20067;-64
2022/02/28 22:34:45;;;;;;;11.32;5.50;;;;;;;;;;21003248;28;20480;-62
2022/02/28 22:44:47;;;;;;;10.50;5.15;;;;;;;;;;21004160;28;20044;-59
2022/02/28 22:54:49;;;;;;;12.52;5.57;;;;;;;;;;21003255;28;20546;-62
2022/02/28 23:04:52;;;;;;;11.43;5.97;;;;;;;;;;21002280;28;20052;-65
2022/02/28 23:25:16;;;;;;;10.73;5.88;;;;;;;;;;21000146;28;20044;-62
2022/02/28 23:35:18;;;;;;;11.40;5.05;;;;;;;;;;20999340;28;20496;-61
2022/02/28 23:45:21;;;;;;;10.50;5.15;;;;;;;;;;20998574;28;20481;-62
2022/02/28 23:55:24;;;;;;;9.25;5.53;;;;;;;;;;20997500;28;20060;-59
